createdAt,value
2018-10-09T01:24:18.218Z,62.53
2018-10-09T01:26:46.305Z,57.80
2018-10-09T01:29:14.744Z,69.43
2018-10-09T01:31:42.814Z,78.73
2018-10-09T01:41:33.984Z,62.40
2018-10-09T01:44:02.042Z,68.00
2018-10-09T01:46:30.135Z,58.40
2018-10-09T01:48:58.214Z,62.13
2018-10-09T01:51:26.318Z,59.63
2018-10-09T01:53:54.506Z,55.07
2018-10-09T01:56:22.561Z,60.90
2018-10-09T01:58:50.650Z,55.67
2018-10-09T02:01:18.726Z,55.60
2018-10-09T02:03:46.787Z,53.93
2018-10-09T02:06:14.898Z,60.97
2018-10-09T03:02:45.995Z,68.00
2018-10-09T03:05:14.069Z,60.00
2018-10-09T03:07:42.118Z,70.77
2018-10-09T03:10:10.198Z,66.43
2018-10-09T03:12:38.286Z,61.70
2018-10-09T03:15:06.506Z,64.93
2018-10-09T03:17:34.580Z,66.90
2018-10-09T03:20:02.666Z,69.33
2018-10-09T03:22:30.718Z,73.77
2018-10-09T03:24:58.790Z,78.93
2018-10-09T03:27:26.874Z,87.90
2018-10-09T03:29:55.098Z,73.97
2018-10-09T03:32:23.159Z,68.40
2018-10-09T03:34:51.237Z,69.47
2018-10-09T03:37:19.299Z,67.50
2018-10-09T03:39:47.366Z,69.27
2018-10-09T03:42:15.443Z,72.20
2018-10-09T03:44:43.532Z,66.83
2018-10-09T03:47:11.606Z,61.90
2018-10-09T03:49:39.682Z,70.33
2018-10-09T03:52:07.755Z,68.97
2018-10-09T03:54:35.855Z,76.03
2018-10-09T03:57:03.924Z,69.33
2018-10-09T03:59:31.998Z,75.57
2018-10-09T04:02:00.050Z,89.53
2018-10-09T04:04:28.146Z,77.40
2018-10-09T04:06:56.210Z,91.30
2018-10-09T04:09:24.306Z,90.13
2018-10-09T04:11:52.386Z,96.40
2018-10-09T04:14:20.454Z,92.40
2018-10-09T04:16:48.530Z,107.30
2018-10-09T04:19:16.672Z,98.00
2018-10-09T04:21:44.686Z,105.23
2018-10-09T04:24:12.774Z,109.47
2018-10-09T04:26:41.027Z,91.07
2018-10-09T04:29:09.092Z,103.33
2018-10-09T04:31:37.174Z,101.27
2018-10-09T04:34:05.542Z,95.97
2018-10-09T04:43:55.851Z,94.80
2018-10-09T08:12:47.593Z,64.50
2018-10-09T08:27:32.747Z,64.67
2018-10-09T08:30:00.839Z,60.73
2018-10-09T08:32:28.955Z,61.57
2018-10-09T08:34:57.041Z,60.07
2018-10-09T08:39:52.495Z,54.57
2018-10-09T08:42:20.576Z,58.37
2018-10-09T08:47:16.030Z,56.43
2018-10-09T08:49:44.110Z,59.03
2018-10-09T08:52:12.182Z,57.83
2018-10-09T08:54:40.237Z,56.50
2018-10-09T08:57:08.331Z,55.00
2018-10-09T08:59:36.410Z,61.20
2018-10-09T09:04:31.852Z,58.35
2018-10-09T09:11:54.774Z,62.20
2018-10-09T09:16:50.298Z,54.10
2018-10-09T09:19:18.323Z,56.50
2018-10-09T09:38:58.172Z,52.83
2018-10-09T09:41:26.226Z,50.13
2018-10-09T09:43:54.275Z,52.53
2018-10-09T09:51:17.155Z,49.53
2018-10-09T10:10:58.902Z,43.80
2018-10-09T11:02:35.554Z,31.27
2018-10-09T11:05:03.625Z,32.20
2018-10-09T11:07:31.918Z,30.70
2018-10-09T11:12:27.447Z,29.15
2018-10-09T11:24:45.239Z,26.33
2018-10-09T11:44:25.388Z,18.90
2018-10-09T12:31:03.931Z,15.10
2018-10-09T12:33:31.817Z,16.25
2018-10-09T12:55:37.781Z,13.33
2018-10-09T13:05:27.478Z,12.87
2018-10-09T13:07:55.390Z,12.50
2018-10-09T13:10:23.298Z,12.33
2018-10-09T13:20:12.890Z,13.47
2018-10-09T13:27:35.429Z,13.32
2018-10-09T13:42:19.651Z,11.20
2018-10-09T13:47:14.874Z,10.30
2018-10-09T13:49:42.710Z,11.95
2018-10-09T13:52:10.594Z,11.50
2018-10-09T13:57:05.883Z,10.20
2018-10-09T14:31:27.975Z,12.10
2018-10-09T14:41:17.538Z,10.90
2018-10-09T15:03:23.408Z,10.88
2018-10-09T15:05:51.511Z,10.40
2018-10-09T15:10:46.638Z,10.75
2018-10-09T15:13:14.521Z,11.65
2018-10-09T15:15:42.402Z,10.47
2018-10-09T15:18:10.278Z,11.80
2018-10-09T15:27:59.863Z,9.08
2018-10-09T15:30:27.738Z,9.73
2018-10-09T15:32:55.615Z,9.23
2018-10-09T15:35:23.571Z,8.85
2018-10-09T15:37:51.438Z,10.80
2018-10-09T15:40:19.318Z,9.08
2018-10-09T15:42:47.208Z,9.48
2018-10-09T15:45:15.074Z,9.33
2018-10-09T15:52:37.469Z,8.73
2018-10-09T15:57:32.578Z,9.00
2018-10-09T16:02:27.702Z,9.83
2018-10-09T16:04:55.673Z,8.50
2018-10-09T16:12:18.025Z,9.30
2018-10-09T16:34:23.891Z,12.50
2018-10-09T17:16:08.598Z,15.90
2018-10-09T17:18:36.497Z,16.20
2018-10-09T17:28:26.540Z,19.33
2018-10-09T17:30:54.578Z,20.80
2018-10-09T17:33:22.498Z,20.00
2018-10-09T17:35:50.382Z,22.70
2018-10-09T17:38:18.263Z,21.90
2018-10-09T17:40:46.141Z,21.77
2018-10-09T17:43:14.054Z,22.87
2018-10-09T17:48:09.187Z,23.07
2018-10-09T17:50:37.105Z,24.90
2018-10-09T17:53:05.006Z,24.80
2018-10-09T17:55:32.926Z,25.30
2018-10-09T17:58:00.845Z,26.87
2018-10-09T18:00:28.790Z,26.37
2018-10-09T18:02:56.714Z,26.70
2018-10-09T18:05:24.597Z,26.97
2018-10-09T18:07:52.671Z,28.83
2018-10-09T18:10:20.715Z,31.37
2018-10-09T18:12:48.751Z,31.87
2018-10-09T18:15:16.814Z,30.43
2018-10-09T18:17:45.146Z,30.83
2018-10-09T18:20:13.218Z,32.43
2018-10-09T18:22:41.277Z,32.37
2018-10-09T18:27:37.115Z,32.55
2018-10-09T18:47:22.668Z,34.20
2018-10-09T18:49:50.711Z,34.30
2018-10-09T18:52:18.771Z,35.40
2018-10-09T20:33:03.986Z,47.77
2018-10-09T20:35:32.069Z,46.70
2018-10-09T20:38:00.106Z,46.43
